Time;durP1;ratioP1;P1;durP2;ratioP2;P2;SDS_P1;SDS_P2;PMS_P1;PMS_P2;Temp;Humidity;BMP_temperature;BMP_pressure;BME280_temperature;BME280_humidity;BME280_pressure;Samples;Min_cycle;Max_cycle;Signal;HPM_P1;HPM_P2
2024/01/22 00:01:05;;;;;;;15.88;7.40;;;3.20;99.90;;;;;;5057385;28;20031;-70
2024/01/22 00:03:31;;;;;;;16.20;7.25;;;3.10;99.90;;;;;;5056904;28;20119;-70
2024/01/22 00:05:56;;;;;;;14.55;7.03;;;3.30;99.90;;;;;;5057678;28;20047;-70
2024/01/22 00:08:22;;;;;;;19.90;7.03;;;3.40;99.90;;;;;;5057948;28;20025;-69
2024/01/22 00:10:47;;;;;;;13.43;6.55;;;3.40;99.90;;;;;;5057390;28;20070;-70
2024/01/22 00:13:13;;;;;;;17.48;7.30;;;3.50;99.90;;;;;;5056536;28;20021;-70
2024/01/22 00:15:38;;;;;;;14.63;6.97;;;3.40;99.90;;;;;;5056589;28;20021;-70
2024/01/22 00:18:04;;;;;;;18.65;7.30;;;3.40;99.90;;;;;;5057942;28;20036;-69
2024/01/22 00:20:29;;;;;;;20.25;6.82;;;3.30;99.90;;;;;;5057618;28;20029;-69
2024/01/22 00:22:55;;;;;;;13.82;7.40;;;3.30;99.90;;;;;;5057412;28;20029;-69
2024/01/22 00:25:21;;;;;;;14.15;6.18;;;3.30;99.90;;;;;;5057779;28;20036;-69
2024/01/22 00:27:46;;;;;;;17.60;6.88;;;3.30;99.90;;;;;;5057327;28;20025;-69
2024/01/22 00:30:12;;;;;;;19.00;7.25;;;3.40;99.90;;;;;;5057249;28;20045;-69
2024/01/22 00:32:37;;;;;;;16.92;6.82;;;3.40;99.90;;;;;;5057301;28;20084;-69
2024/01/22 00:35:03;;;;;;;15.18;7.07;;;3.30;99.90;;;;;;5056718;28;20033;-70
2024/01/22 00:37:29;;;;;;;13.80;6.82;;;3.30;99.90;;;;;;5057143;28;20025;-69
2024/01/22 00:39:57;;;;;;;16.27;6.47;;;3.40;99.90;;;;;;5057023;28;20037;-69
2024/01/22 00:42:23;;;;;;;14.50;5.97;;;3.40;99.90;;;;;;5056950;28;20100;-69
2024/01/22 00:44:49;;;;;;;12.93;6.57;;;3.50;99.90;;;;;;5056443;28;20120;-69
2024/01/22 00:47:14;;;;;;;13.90;6.47;;;3.50;99.90;;;;;;5056444;28;20032;-69
2024/01/22 00:49:41;;;;;;;13.57;5.95;;;3.50;99.90;;;;;;5057046;28;20028;-69
2024/01/22 00:52:06;;;;;;;15.75;6.53;;;3.50;99.90;;;;;;5057284;28;20017;-70
2024/01/22 00:54:32;;;;;;;15.57;7.22;;;3.50;99.90;;;;;;5056967;28;20031;-69
2024/01/22 00:56:58;;;;;;;14.43;5.78;;;3.40;99.90;;;;;;5056918;28;20158;-69
2024/01/22 00:59:24;;;;;;;9.55;4.72;;;3.40;99.90;;;;;;5057188;28;20025;-69
2024/01/22 01:01:50;;;;;;;16.88;6.55;;;3.50;99.90;;;;;;5056378;28;20036;-69
2024/01/22 01:04:15;;;;;;;11.13;5.18;;;3.50;99.90;;;;;;5056951;28;20029;-70
2024/01/22 01:06:41;;;;;;;8.85;4.88;;;3.50;99.90;;;;;;5056363;28;20024;-69
2024/01/22 01:09:06;;;;;;;19.05;5.78;;;3.60;99.90;;;;;;5056263;28;20025;-69
2024/01/22 01:11:32;;;;;;;17.63;5.47;;;3.60;99.90;;;;;;5055993;28;20079;-69
2024/01/22 01:13:57;;;;;;;11.73;5.60;;;3.60;99.90;;;;;;5056681;28;20111;-69
2024/01/22 01:16:23;;;;;;;12.18;5.47;;;3.60;99.90;;;;;;5055837;28;20032;-69
2024/01/22 01:18:48;;;;;;;13.43;5.60;;;3.60;99.90;;;;;;5056962;28;20031;-69
2024/01/22 01:21:14;;;;;;;13.98;6.13;;;3.60;99.90;;;;;;5055734;28;20021;-69
2024/01/22 01:23:40;;;;;;;12.45;5.20;;;3.70;99.90;;;;;;5056187;28;20028;-69
2024/01/22 01:26:05;;;;;;;10.38;5.13;;;3.70;99.90;;;;;;5056722;28;20027;-69
2024/01/22 01:28:31;;;;;;;16.50;5.35;;;3.70;99.90;;;;;;5055708;28;20025;-69
2024/01/22 01:30:56;;;;;;;10.65;5.22;;;3.80;99.90;;;;;;5056627;28;20024;-69
2024/01/22 01:33:22;;;;;;;12.45;5.28;;;3.80;99.90;;;;;;5056286;28;20025;-69
2024/01/22 01:35:47;;;;;;;13.98;5.70;;;3.80;99.90;;;;;;5056635;28;20025;-70
2024/01/22 01:38:13;;;;;;;13.45;4.88;;;3.80;99.90;;;;;;5057001;28;20033;-69
2024/01/22 01:40:42;;;;;;;10.38;4.90;;;3.80;99.90;;;;;;5056320;28;20029;-69
2024/01/22 01:43:07;;;;;;;15.82;5.10;;;3.80;99.90;;;;;;5056555;28;20029;-69
2024/01/22 01:45:33;;;;;;;13.50;4.10;;;3.90;99.90;;;;;;5055609;28;20033;-69
2024/01/22 01:47:59;;;;;;;9.65;4.18;;;4.00;99.90;;;;;;5059176;28;20061;-70
2024/01/22 01:50:25;;;;;;;14.45;4.78;;;4.00;99.90;;;;;;5059434;28;20025;-70
2024/01/22 01:52:52;;;;;;;8.70;3.92;;;4.10;99.90;;;;;;5059717;28;20017;-70
2024/01/22 01:55:20;;;;;;;11.13;5.10;;;4.10;99.90;;;;;;5060347;28;20088;-70
2024/01/22 01:57:46;;;;;;;15.30;4.60;;;4.20;99.90;;;;;;5059259;28;20029;-70
2024/01/22 02:00:13;;;;;;;9.65;4.35;;;4.20;99.90;;;;;;5059456;28;20029;-70
2024/01/22 02:02:39;;;;;;;9.50;4.10;;;4.20;99.90;;;;;;5059950;28;20025;-70
2024/01/22 02:05:05;;;;;;;13.23;4.50;;;4.20;99.90;;;;;;5060738;28;20044;-70
2024/01/22 02:07:31;;;;;;;12.13;4.15;;;4.20;99.90;;;;;;5059861;28;20063;-70
2024/01/22 02:09:56;;;;;;;5.82;3.03;;;4.20;99.90;;;;;;5060064;28;20071;-70
2024/01/22 02:12:22;;;;;;;11.35;4.13;;;4.30;99.90;;;;;;5059175;28;20096;-70
2024/01/22 02:14:48;;;;;;;7.78;4.07;;;4.30;99.90;;;;;;5060496;28;20081;-70
2024/01/22 02:17:14;;;;;;;14.65;4.13;;;4.40;99.90;;;;;;5059810;28;20041;-70
2024/01/22 02:19:39;;;;;;;5.95;3.08;;;4.40;99.90;;;;;;5059658;28;20025;-70
2024/01/22 02:22:05;;;;;;;8.60;3.47;;;4.30;99.90;;;;;;5058814;28;20119;-70
2024/01/22 02:24:31;;;;;;;7.03;3.10;;;4.30;99.90;;;;;;5058754;28;20025;-69
2024/01/22 02:26:57;;;;;;;9.70;3.10;;;4.20;99.90;;;;;;5059731;28;20089;-69
2024/01/22 02:29:22;;;;;;;9.27;3.13;;;4.10;99.90;;;;;;5058975;28;20021;-69
2024/01/22 02:31:52;;;;;;;12.07;3.53;;;4.30;99.90;;;;;;5059453;28;20031;-69
2024/01/22 02:34:18;;;;;;;14.55;4.03;;;4.40;99.90;;;;;;5059527;28;20024;-69
2024/01/22 02:36:45;;;;;;;8.43;2.97;;;4.40;99.90;;;;;;5058418;28;20021;-70
2024/01/22 02:39:11;;;;;;;13.80;4.03;;;4.40;99.90;;;;;;5059455;28;20021;-70
2024/01/22 02:41:37;;;;;;;10.25;3.40;;;4.50;99.90;;;;;;5058234;28;20029;-70
2024/01/22 02:44:03;;;;;;;8.93;3.97;;;4.50;99.90;;;;;;5058434;28;20087;-69
2024/01/22 02:46:29;;;;;;;7.93;2.70;;;4.50;99.90;;;;;;5059184;28;20104;-70
2024/01/22 02:48:55;;;;;;;6.90;3.47;;;4.50;99.90;;;;;;5059677;28;20045;-69
2024/01/22 02:51:20;;;;;;;9.43;3.88;;;4.50;99.90;;;;;;5058398;28;20017;-69
2024/01/22 02:53:46;;;;;;;6.22;3.08;;;4.40;99.90;;;;;;5059230;28;20027;-70
2024/01/22 02:56:17;;;;;;;8.00;3.53;;;4.40;99.90;;;;;;5059280;28;20108;-70
2024/01/22 02:58:43;;;;;;;9.13;2.90;;;4.50;99.90;;;;;;5057559;28;20031;-70
2024/01/22 03:01:08;;;;;;;6.53;3.13;;;4.50;99.90;;;;;;5058355;28;20029;-70
2024/01/22 03:03:34;;;;;;;10.73;3.65;;;4.50;99.90;;;;;;5058009;28;20115;-69
2024/01/22 03:05:59;;;;;;;7.47;3.03;;;4.40;99.90;;;;;;5058907;28;20025;-69
2024/01/22 03:08:25;;;;;;;5.65;2.88;;;4.40;99.90;;;;;;5057729;28;20032;-69
2024/01/22 03:10:50;;;;;;;9.25;2.70;;;4.40;99.90;;;;;;5058284;28;20028;-69
2024/01/22 03:13:16;;;;;;;7.35;2.95;;;4.50;99.90;;;;;;5059014;28;20024;-69
2024/01/22 03:15:41;;;;;;;6.10;2.40;;;4.50;99.90;;;;;;5057848;28;20105;-69
2024/01/22 03:18:08;;;;;;;7.13;2.75;;;4.50;99.90;;;;;;5058605;28;20139;-70
2024/01/22 03:20:34;;;;;;;9.02;2.35;;;4.40;99.90;;;;;;5057719;28;20048;-69
2024/01/22 03:22:59;;;;;;;5.97;2.50;;;4.60;99.90;;;;;;5057576;28;20032;-69
2024/01/22 03:25:25;;;;;;;4.00;2.40;;;4.60;99.90;;;;;;5058449;28;20029;-69
2024/01/22 03:27:50;;;;;;;9.55;2.90;;;4.50;99.90;;;;;;5058396;28;20076;-69
2024/01/22 03:30:16;;;;;;;7.47;2.85;;;4.60;99.90;;;;;;5057815;28;20047;-69
2024/01/22 03:32:41;;;;;;;7.00;2.97;;;4.50;99.90;;;;;;5058184;28;20051;-69
2024/01/22 03:35:07;;;;;;;11.48;3.03;;;4.40;99.90;;;;;;5058565;28;20112;-70
2024/01/22 03:37:33;;;;;;;6.47;3.03;;;4.40;99.90;;;;;;5057677;28;20021;-70
2024/01/22 03:39:58;;;;;;;5.78;3.20;;;4.40;99.90;;;;;;5058317;28;20041;-69
2024/01/22 03:42:24;;;;;;;5.90;2.47;;;4.50;99.90;;;;;;5058156;28;20032;-69
2024/01/22 03:44:49;;;;;;;8.20;2.88;;;4.50;99.90;;;;;;5058171;28;20028;-69
2024/01/22 03:47:15;;;;;;;4.97;3.10;;;4.40;99.90;;;;;;5057985;28;20028;-69
2024/01/22 03:49:40;;;;;;;7.82;3.05;;;4.40;99.90;;;;;;5058033;28;20021;-70
2024/01/22 03:52:06;;;;;;;8.05;2.38;;;4.50;99.90;;;;;;5056992;28;20021;-70
2024/01/22 03:54:31;;;;;;;7.45;2.83;;;4.70;99.90;;;;;;5058141;28;20159;-70
2024/01/22 03:56:57;;;;;;;7.32;2.45;;;4.60;99.90;;;;;;5057152;28;20028;-70
2024/01/22 03:59:23;;;;;;;7.13;2.70;;;4.60;99.90;;;;;;5057292;28;20029;-69
2024/01/22 04:01:48;;;;;;;6.38;2.78;;;4.80;99.90;;;;;;5057062;28;20036;-69
2024/01/22 04:04:14;;;;;;;6.93;2.92;;;5.00;99.90;;;;;;5056866;28;20029;-70
2024/01/22 04:06:39;;;;;;;5.63;2.00;;;5.10;99.90;;;;;;5056762;28;20021;-70
2024/01/22 04:09:05;;;;;;;6.13;2.63;;;5.10;99.90;;;;;;5056820;28;20025;-70
2024/01/22 04:11:31;;;;;;;3.75;2.20;;;5.10;99.90;;;;;;5056602;28;20017;-70
2024/01/22 04:13:56;;;;;;;5.35;2.50;;;5.20;99.90;;;;;;5056613;28;20032;-70
2024/01/22 04:16:22;;;;;;;7.20;2.20;;;5.30;99.90;;;;;;5056719;28;20032;-69
2024/01/22 04:18:47;;;;;;;5.78;2.58;;;5.20;99.90;;;;;;5056516;28;20025;-70
2024/01/22 04:21:13;;;;;;;6.20;2.55;;;5.30;99.90;;;;;;5056829;28;20021;-69
2024/01/22 04:23:38;;;;;;;5.40;2.17;;;5.30;99.90;;;;;;5057375;28;20032;-69
2024/01/22 04:26:05;;;;;;;6.47;2.03;;;5.20;99.90;;;;;;5057272;28;20036;-70
2024/01/22 04:28:31;;;;;;;4.68;2.30;;;5.20;99.90;;;;;;5056673;28;20027;-70
2024/01/22 04:30:56;;;;;;;6.95;2.25;;;5.20;99.90;;;;;;5057274;28;20021;-69
2024/01/22 04:33:22;;;;;;;5.43;2.40;;;5.20;99.90;;;;;;5057293;28;20102;-70
2024/01/22 04:35:50;;;;;;;5.10;2.25;;;5.20;99.90;;;;;;5057536;28;20075;-69
2024/01/22 04:38:17;;;;;;;3.78;2.33;;;5.10;99.90;;;;;;5057177;28;20025;-69
2024/01/22 04:40:42;;;;;;;5.07;2.50;;;5.00;99.90;;;;;;5056121;28;20113;-69
2024/01/22 04:43:08;;;;;;;9.55;2.45;;;5.00;99.90;;;;;;5057196;28;20025;-70
2024/01/22 04:45:34;;;;;;;4.32;2.25;;;4.90;99.90;;;;;;5057355;28;20033;-69
2024/01/22 04:48:00;;;;;;;10.20;3.00;;;5.00;99.90;;;;;;5057275;28;20020;-70
2024/01/22 04:50:25;;;;;;;7.53;2.47;;;4.90;99.90;;;;;;5057587;28;20029;-68
2024/01/22 04:52:51;;;;;;;4.68;2.22;;;4.90;99.90;;;;;;5056940;28;20048;-68
2024/01/22 04:55:16;;;;;;;5.28;2.38;;;4.80;99.90;;;;;;5057072;28;20037;-69
2024/01/22 04:57:42;;;;;;;5.47;2.47;;;4.80;99.90;;;;;;5056376;28;20032;-69
2024/01/22 05:00:08;;;;;;;7.15;2.33;;;4.80;99.90;;;;;;5056084;28;20029;-69
2024/01/22 05:02:33;;;;;;;3.85;2.05;;;4.90;99.90;;;;;;5055884;28;20113;-69
2024/01/22 05:05:02;;;;;;;12.55;2.13;;;4.80;99.90;;;;;;5056817;28;20106;-69
2024/01/22 05:07:28;;;;;;;9.00;2.78;;;4.80;99.90;;;;;;5056978;28;20151;-69
2024/01/22 05:09:58;;;;;;;3.75;1.80;;;4.80;99.90;;;;;;5055987;28;20120;-69
2024/01/22 05:12:24;;;;;;;4.05;2.35;;;4.90;99.90;;;;;;5055924;28;20025;-69
2024/01/22 05:14:51;;;;;;;6.55;2.17;;;4.80;99.90;;;;;;5056423;28;20017;-69
2024/01/22 05:17:16;;;;;;;3.03;1.88;;;4.80;99.90;;;;;;5056843;28;20023;-69
2024/01/22 05:19:42;;;;;;;5.38;2.20;;;4.90;99.90;;;;;;5055962;28;20024;-69
2024/01/22 05:22:08;;;;;;;4.65;2.55;;;4.90;99.90;;;;;;5058157;28;20032;-70
2024/01/22 05:24:36;;;;;;;4.53;1.73;;;5.00;99.90;;;;;;5060178;28;20044;-70
2024/01/22 05:27:03;;;;;;;6.38;2.40;;;5.00;99.90;;;;;;5059771;28;20032;-70
2024/01/22 05:29:29;;;;;;;6.40;2.13;;;5.00;99.90;;;;;;5060968;28;20017;-70
2024/01/22 05:31:54;;;;;;;4.15;1.83;;;4.90;99.90;;;;;;5060562;28;20098;-70
2024/01/22 05:34:20;;;;;;;4.63;2.08;;;5.00;99.90;;;;;;5060674;28;20032;-69
2024/01/22 05:36:46;;;;;;;6.18;2.00;;;5.10;99.90;;;;;;5060542;28;20021;-69
2024/01/22 05:39:12;;;;;;;4.25;1.80;;;5.10;99.90;;;;;;5060861;28;20021;-69
2024/01/22 05:41:38;;;;;;;6.70;1.92;;;5.20;99.90;;;;;;5059791;28;20035;-69
2024/01/22 05:44:04;;;;;;;10.30;2.45;;;5.20;99.90;;;;;;5060305;28;20108;-69
2024/01/22 05:46:30;;;;;;;7.90;2.17;;;5.20;99.90;;;;;;5060492;28;20028;-70
2024/01/22 05:48:55;;;;;;;2.72;1.83;;;5.20;99.90;;;;;;5060256;28;20060;-70
2024/01/22 05:51:21;;;;;;;7.13;2.47;;;5.20;99.90;;;;;;5059769;28;20023;-69
2024/01/22 05:53:47;;;;;;;6.57;2.10;;;5.20;99.90;;;;;;5060242;28;20013;-69
2024/01/22 05:56:25;;;;;;;6.72;1.73;;;5.10;99.90;;;;;;5060245;28;20025;-69
2024/01/22 05:58:55;;;;;;;5.97;1.88;;;5.10;99.90;;;;;;5059590;28;20064;-69
2024/01/22 06:01:22;;;;;;;3.72;2.10;;;5.10;99.90;;;;;;5059383;28;20170;-69
2024/01/22 06:03:48;;;;;;;5.97;1.85;;;5.10;99.90;;;;;;5060076;28;20033;-69
2024/01/22 06:06:14;;;;;;;5.25;1.98;;;5.10;99.90;;;;;;5059929;28;20025;-69
2024/01/22 06:08:44;;;;;;;3.15;1.85;;;5.00;99.90;;;;;;5060092;28;20033;-69
2024/01/22 06:11:14;;;;;;;3.97;1.90;;;5.10;99.90;;;;;;5059912;28;20103;-69
2024/01/22 06:13:41;;;;;;;5.85;2.10;;;5.10;99.90;;;;;;5059819;28;20075;-69
2024/01/22 06:16:07;;;;;;;7.25;2.15;;;5.10;99.90;;;;;;5060175;28;20017;-69
2024/01/22 06:18:34;;;;;;;5.88;1.83;;;4.90;99.90;;;;;;5059964;28;20029;-69
2024/01/22 06:20:59;;;;;;;6.60;2.05;;;4.80;99.90;;;;;;5059143;28;20032;-70
2024/01/22 06:23:25;;;;;;;5.22;1.95;;;4.80;99.90;;;;;;5060190;28;20029;-70
2024/01/22 06:25:50;;;;;;;4.15;1.30;;;4.90;99.90;;;;;;5059697;28;20021;-70
2024/01/22 06:28:16;;;;;;;5.65;1.70;;;4.90;99.90;;;;;;5058986;28;20135;-69
2024/01/22 06:30:43;;;;;;;2.60;1.70;;;4.90;99.90;;;;;;5059639;28;20032;-69
2024/01/22 06:33:09;;;;;;;6.47;2.38;;;5.00;99.90;;;;;;5058510;28;20104;-69
2024/01/22 06:35:34;;;;;;;4.55;1.60;;;4.90;99.90;;;;;;5059508;28;20044;-69
2024/01/22 06:38:00;;;;;;;3.80;2.08;;;4.80;99.90;;;;;;5059478;28;20036;-70
2024/01/22 06:40:26;;;;;;;3.25;1.48;;;4.80;99.90;;;;;;5059290;28;20052;-69
2024/01/22 06:42:51;;;;;;;6.68;3.05;;;4.90;99.90;;;;;;5059344;28;20052;-70
2024/01/22 06:45:17;;;;;;;6.38;2.08;;;4.90;99.90;;;;;;5059534;28;20099;-69
2024/01/22 06:47:42;;;;;;;5.25;1.50;;;4.90;99.90;;;;;;5059131;28;20029;-69
2024/01/22 06:50:08;;;;;;;5.05;2.10;;;4.90;99.90;;;;;;5059187;28;20063;-70
2024/01/22 06:52:36;;;;;;;5.95;2.00;;;4.90;99.90;;;;;;5058946;28;20025;-70
2024/01/22 06:55:02;;;;;;;9.60;2.15;;;4.80;99.90;;;;;;5059465;28;20017;-69
2024/01/22 06:57:27;;;;;;;6.43;2.33;;;4.80;99.90;;;;;;5059248;28;20021;-69
2024/01/22 06:59:55;;;;;;;7.55;1.90;;;4.70;99.90;;;;;;5058092;28;20025;-69
2024/01/22 07:02:27;;;;;;;7.07;2.40;;;4.60;99.90;;;;;;5059060;28;20025;-69
2024/01/22 07:04:55;;;;;;;4.30;1.65;;;4.60;99.90;;;;;;5059161;28;20032;-69
2024/01/22 07:07:21;;;;;;;5.53;2.10;;;4.60;99.90;;;;;;5058948;28;20048;-69
2024/01/22 07:09:47;;;;;;;3.20;1.88;;;4.70;99.90;;;;;;5058244;28;20017;-69
2024/01/22 07:12:12;;;;;;;6.35;2.00;;;4.80;99.90;;;;;;5058700;28;20025;-69
2024/01/22 07:14:38;;;;;;;5.25;2.08;;;4.80;99.90;;;;;;5057987;28;20021;-69
2024/01/22 07:17:04;;;;;;;6.03;2.22;;;4.80;99.90;;;;;;5058751;28;20025;-69
2024/01/22 07:19:29;;;;;;;3.63;1.80;;;4.70;99.90;;;;;;5058687;28;20082;-69
2024/01/22 07:21:55;;;;;;;6.75;2.47;;;4.80;99.90;;;;;;5059159;28;20060;-69
2024/01/22 07:24:20;;;;;;;6.30;2.25;;;4.90;99.90;;;;;;5058133;28;20060;-69
2024/01/22 07:26:46;;;;;;;6.20;1.70;;;4.90;99.90;;;;;;5057704;28;20033;-69
2024/01/22 07:29:12;;;;;;;6.53;2.47;;;5.00;99.90;;;;;;5057618;28;20021;-69
2024/01/22 07:31:38;;;;;;;2.88;1.80;;;4.90;99.90;;;;;;5057499;28;20085;-69
2024/01/22 07:34:03;;;;;;;8.07;1.90;;;5.00;99.90;;;;;;5058459;28;20029;-69
2024/01/22 07:36:29;;;;;;;5.00;2.15;;;5.00;99.90;;;;;;5058167;28;20025;-69
2024/01/22 07:38:56;;;;;;;6.15;2.03;;;5.00;99.90;;;;;;5058276;28;20029;-69
2024/01/22 07:41:21;;;;;;;8.38;2.20;;;5.00;99.90;;;;;;5057294;28;20079;-69
2024/01/22 07:43:47;;;;;;;6.97;2.50;;;5.00;99.90;;;;;;5058081;28;20056;-69
2024/01/22 07:46:13;;;;;;;4.20;1.95;;;5.00;99.90;;;;;;5057834;28;20033;-69
2024/01/22 07:48:39;;;;;;;7.22;1.92;;;5.00;99.90;;;;;;5058000;28;20123;-69
2024/01/22 07:51:05;;;;;;;4.93;1.75;;;5.00;99.90;;;;;;5057950;28;20028;-69
2024/01/22 07:53:31;;;;;;;4.05;1.90;;;5.00;99.90;;;;;;5058323;28;20045;-69
2024/01/22 07:55:58;;;;;;;4.13;2.20;;;5.00;99.90;;;;;;5057058;28;20089;-68
2024/01/22 07:58:23;;;;;;;4.28;1.63;;;5.10;99.90;;;;;;5058196;28;20035;-69
2024/01/22 08:00:49;;;;;;;3.97;2.30;;;5.10;99.90;;;;;;5056897;28;20024;-69
2024/01/22 08:03:14;;;;;;;5.32;2.33;;;5.20;99.90;;;;;;5058044;28;20059;-69
2024/01/22 08:05:40;;;;;;;5.22;2.55;;;5.30;99.90;;;;;;5057048;28;20115;-69
2024/01/22 08:08:09;;;;;;;2.65;1.50;;;5.30;99.90;;;;;;5056791;28;20021;-69
2024/01/22 08:10:35;;;;;;;6.68;1.70;;;5.30;99.90;;;;;;5056769;28;20025;-69
2024/01/22 08:13:01;;;;;;;6.28;2.53;;;5.40;99.90;;;;;;5058160;28;20025;-69
2024/01/22 08:15:26;;;;;;;4.35;1.70;;;5.30;99.90;;;;;;5057643;28;20131;-69
2024/01/22 08:17:52;;;;;;;7.40;2.30;;;5.30;99.90;;;;;;5057524;28;20032;-69
2024/01/22 08:20:18;;;;;;;6.90;2.10;;;5.30;99.90;;;;;;5056575;28;20078;-69
2024/01/22 08:22:44;;;;;;;4.57;1.98;;;5.40;99.90;;;;;;5057398;28;20028;-68
2024/01/22 08:25:09;;;;;;;2.95;1.63;;;5.40;99.90;;;;;;5056857;28;20028;-68
2024/01/22 08:27:35;;;;;;;3.65;1.80;;;5.40;99.90;;;;;;5056736;28;20025;-68
2024/01/22 08:30:01;;;;;;;6.97;2.00;;;5.40;99.90;;;;;;5057425;28;20023;-68
2024/01/22 08:32:26;;;;;;;6.88;1.95;;;5.40;99.90;;;;;;5056580;28;20017;-68
2024/01/22 08:34:53;;;;;;;4.00;1.40;;;5.50;99.90;;;;;;5057626;28;20029;-68
2024/01/22 08:37:18;;;;;;;3.08;1.70;;;5.60;99.90;;;;;;5056307;28;20035;-68
2024/01/22 08:39:44;;;;;;;8.07;2.13;;;5.60;99.90;;;;;;5057346;28;20115;-70
2024/01/22 08:42:09;;;;;;;5.15;2.00;;;5.70;99.90;;;;;;5056169;28;20025;-70
2024/01/22 08:44:35;;;;;;;6.65;2.65;;;5.70;99.90;;;;;;5056410;28;20020;-69
2024/01/22 08:47:00;;;;;;;3.92;1.70;;;5.90;99.90;;;;;;5057004;28;20033;-70
2024/01/22 08:49:26;;;;;;;5.93;1.88;;;5.90;99.90;;;;;;5057272;28;20025;-70
2024/01/22 08:51:51;;;;;;;2.05;1.20;;;5.90;99.90;;;;;;5057075;28;20024;-70
2024/01/22 08:54:17;;;;;;;4.13;1.77;;;6.00;99.90;;;;;;5057062;28;20033;-70
2024/01/22 08:56:42;;;;;;;3.22;1.50;;;6.10;99.90;;;;;;5056653;28;20029;-71
2024/01/22 08:59:08;;;;;;;2.28;1.20;;;6.10;99.90;;;;;;5056922;28;20024;-70
2024/01/22 09:01:34;;;;;;;3.22;1.35;;;6.20;99.90;;;;;;5056894;28;20047;-71
2024/01/22 09:03:59;;;;;;;6.05;1.73;;;6.20;99.90;;;;;;5055939;28;20025;-71
2024/01/22 09:06:25;;;;;;;4.05;1.20;;;6.10;99.90;;;;;;5056864;28;20082;-71
2024/01/22 09:08:50;;;;;;;5.00;1.33;;;6.20;99.90;;;;;;5056352;28;20074;-70
2024/01/22 09:11:17;;;;;;;5.55;1.35;;;6.30;99.90;;;;;;5057106;28;20025;-70
2024/01/22 09:13:42;;;;;;;1.95;1.15;;;6.30;99.90;;;;;;5055876;28;20025;-70
2024/01/22 09:16:10;;;;;;;4.75;1.30;;;6.30;99.90;;;;;;5055978;28;20026;-70
2024/01/22 09:18:36;;;;;;;3.40;1.60;;;6.30;99.90;;;;;;5057069;28;20021;-70
2024/01/22 09:21:03;;;;;;;4.70;1.80;;;6.40;99.90;;;;;;5057041;28;20083;-70
2024/01/22 09:23:28;;;;;;;1.27;1.02;;;6.40;99.90;;;;;;5057033;28;20081;-70
2024/01/22 09:25:54;;;;;;;4.53;1.65;;;6.40;99.90;;;;;;5055797;28;20052;-70
2024/01/22 09:28:21;;;;;;;11.82;1.58;;;6.40;99.90;;;;;;5056122;28;20021;-70
2024/01/22 09:30:46;;;;;;;1.88;1.27;;;6.50;99.90;;;;;;5055678;28;20108;-69
2024/01/22 09:33:12;;;;;;;1.98;1.20;;;6.50;99.90;;;;;;5056459;28;20051;-69
2024/01/22 09:35:39;;;;;;;4.32;1.30;;;6.60;99.90;;;;;;5056772;28;20161;-69
2024/01/22 09:38:05;;;;;;;3.90;1.33;;;6.60;99.90;;;;;;5056771;28;20029;-70
2024/01/22 09:40:34;;;;;;;2.95;1.13;;;6.70;99.90;;;;;;5056493;28;20048;-69
2024/01/22 09:43:04;;;;;;;3.67;1.10;;;6.70;99.90;;;;;;5056966;28;20025;-67
2024/01/22 09:45:31;;;;;;;1.45;1.15;;;6.70;99.90;;;;;;5056455;28;20032;-67
2024/01/22 09:47:57;;;;;;;1.88;1.10;;;6.80;99.90;;;;;;5056501;28;20024;-67
2024/01/22 09:50:23;;;;;;;1.38;0.85;;;6.90;99.90;;;;;;5056504;28;20021;-67
2024/01/22 09:52:52;;;;;;;1.58;1.33;;;6.90;99.90;;;;;;5056575;28;20017;-67
2024/01/22 09:55:21;;;;;;;3.22;1.60;;;6.90;99.90;;;;;;5056316;28;20025;-67
2024/01/22 09:57:47;;;;;;;4.03;1.27;;;6.80;99.90;;;;;;5055404;28;20110;-67
2024/01/22 10:00:16;;;;;;;9.93;1.50;;;6.70;99.90;;;;;;5056443;28;20021;-67
2024/01/22 10:02:42;;;;;;;3.05;1.73;;;6.60;99.90;;;;;;5056346;28;20044;-67
2024/01/22 10:05:09;;;;;;;4.07;1.65;;;6.50;99.90;;;;;;5056286;28;20099;-66
2024/01/22 10:07:34;;;;;;;2.67;1.55;;;6.60;99.90;;;;;;5056785;28;20104;-66
2024/01/22 10:10:00;;;;;;;3.03;1.13;;;6.60;99.90;;;;;;5059987;28;20109;-68
2024/01/22 10:12:26;;;;;;;4.50;1.55;;;6.60;99.90;;;;;;5059919;28;20028;-68
2024/01/22 10:14:51;;;;;;;7.25;1.23;;;6.70;99.90;;;;;;5059974;28;20024;-68
2024/01/22 10:17:19;;;;;;;3.30;1.20;;;6.70;99.90;;;;;;5059754;28;20025;-68
2024/01/22 10:19:46;;;;;;;3.10;1.17;;;6.70;99.90;;;;;;5059722;28;20036;-68
2024/01/22 10:22:12;;;;;;;6.10;1.15;;;6.70;99.90;;;;;;5059160;28;20112;-68
2024/01/22 10:24:39;;;;;;;2.05;1.10;;;6.70;99.90;;;;;;5059788;28;20025;-68
2024/01/22 10:27:14;;;;;;;2.85;1.40;;;6.70;99.90;;;;;;5059695;28;20064;-68
2024/01/22 10:29:42;;;;;;;5.53;1.33;;;6.80;99.90;;;;;;5059779;28;20021;-69
2024/01/22 10:32:08;;;;;;;1.83;1.30;;;6.80;99.90;;;;;;5058903;28;20025;-69
2024/01/22 10:34:45;;;;;;;2.85;1.73;;;6.80;99.90;;;;;;5059487;28;20017;-69
2024/01/22 10:37:12;;;;;;;5.72;1.90;;;6.80;99.90;;;;;;5058513;28;20037;-69
2024/01/22 10:39:40;;;;;;;6.40;1.73;;;6.80;99.90;;;;;;5059264;28;20056;-69
2024/01/22 10:42:13;;;;;;;3.50;1.02;;;6.80;99.90;;;;;;5059339;28;20061;-69
2024/01/22 10:44:40;;;;;;;3.40;1.25;;;6.80;99.90;;;;;;5058390;28;20021;-69
2024/01/22 10:47:06;;;;;;;2.85;1.42;;;6.80;99.90;;;;;;5058298;28;20082;-69
2024/01/22 10:49:33;;;;;;;2.00;1.15;;;6.90;99.90;;;;;;5058375;28;20029;-69
2024/01/22 10:52:00;;;;;;;8.20;1.85;;;6.90;99.90;;;;;;5059143;28;20025;-69
2024/01/22 10:54:35;;;;;;;3.80;1.40;;;6.90;99.90;;;;;;5059137;28;20032;-69
2024/01/22 10:57:03;;;;;;;2.55;1.40;;;6.90;99.90;;;;;;5059347;28;20124;-69
2024/01/22 10:59:33;;;;;;;3.65;1.20;;;7.00;99.90;;;;;;5059005;28;20048;-69
2024/01/22 11:01:59;;;;;;;4.05;1.23;;;7.00;99.90;;;;;;5058025;28;20032;-69
2024/01/22 11:04:43;;;;;;;1.88;1.08;;;7.10;99.90;;;;;;5059155;28;20032;-69
2024/01/22 11:07:10;;;;;;;1.58;1.00;;;7.20;99.90;;;;;;5059020;28;20033;-69
2024/01/22 11:09:37;;;;;;;2.78;0.93;;;7.30;99.90;;;;;;5059049;28;20025;-69
2024/01/22 11:12:11;;;;;;;0.90;0.88;;;7.40;99.90;;;;;;5058820;28;20104;-69
2024/01/22 11:14:38;;;;;;;3.22;0.88;;;7.50;99.90;;;;;;5058700;28;20025;-69
2024/01/22 11:17:06;;;;;;;1.15;0.70;;;7.50;99.90;;;;;;5058778;28;20021;-69
2024/01/22 11:19:33;;;;;;;2.60;1.30;;;7.60;99.90;;;;;;5058724;28;20096;-69
2024/01/22 11:21:58;;;;;;;5.72;1.58;;;7.60;99.90;;;;;;5057656;28;20025;-68
2024/01/22 11:24:24;;;;;;;1.95;1.05;;;7.40;99.90;;;;;;5058981;28;20096;-67
2024/01/22 11:26:52;;;;;;;2.88;1.17;;;7.30;99.90;;;;;;5058463;28;20024;-67
2024/01/22 11:29:26;;;;;;;2.95;1.10;;;7.30;99.90;;;;;;5058323;28;20059;-66
2024/01/22 11:31:52;;;;;;;1.70;0.80;;;7.40;99.90;;;;;;5057514;28;20107;-67
2024/01/22 11:34:43;;;;;;;2.35;1.33;;;7.30;99.90;;;;;;5057589;28;20028;-67
2024/01/22 11:37:08;;;;;;;2.72;0.70;;;7.30;99.90;;;;;;5058491;28;20025;-67
2024/01/22 11:39:41;;;;;;;3.17;1.20;;;7.30;99.90;;;;;;5058452;28;20036;-67
2024/01/22 11:42:07;;;;;;;1.75;1.20;;;7.40;99.90;;;;;;5058436;28;20025;-67
2024/01/22 11:44:40;;;;;;;2.08;1.10;;;7.50;99.90;;;;;;5058238;28;20036;-67
2024/01/22 11:47:09;;;;;;;2.38;1.35;;;7.50;99.90;;;;;;5058370;28;20036;-67
2024/01/22 11:49:35;;;;;;;4.68;1.20;;;7.30;99.90;;;;;;5058200;28;20021;-67
2024/01/22 11:52:10;;;;;;;1.38;1.25;;;7.30;99.90;;;;;;5057040;28;20021;-67
2024/01/22 11:54:35;;;;;;;2.38;1.52;;;7.20;99.90;;;;;;5058051;28;20025;-67
2024/01/22 11:57:02;;;;;;;2.92;1.52;;;7.10;99.90;;;;;;5057563;28;20021;-67
2024/01/22 11:59:28;;;;;;;2.15;1.30;;;7.10;99.90;;;;;;5057983;28;20087;-67
2024/01/22 12:02:11;;;;;;;3.38;1.75;;;6.90;99.90;;;;;;5057841;28;20020;-67
2024/01/22 12:04:37;;;;;;;4.18;1.50;;;6.90;99.90;;;;;;5056970;28;20025;-67
2024/01/22 12:07:02;;;;;;;2.42;1.63;;;6.80;99.90;;;;;;5058250;28;20029;-67
2024/01/22 12:09:34;;;;;;;3.47;1.45;;;6.70;99.90;;;;;;5056960;28;20017;-67
2024/01/22 12:12:03;;;;;;;7.30;1.83;;;6.80;99.90;;;;;;5057517;28;20028;-67
2024/01/22 12:14:29;;;;;;;3.78;2.10;;;6.70;99.90;;;;;;5056842;28;20099;-67
2024/01/22 12:17:04;;;;;;;4.22;1.65;;;6.70;99.90;;;;;;5056646;28;20025;-67
2024/01/22 12:19:31;;;;;;;4.18;1.98;;;6.70;99.90;;;;;;5056661;28;20017;-67
2024/01/22 12:21:57;;;;;;;4.25;1.80;;;6.70;99.90;;;;;;5057482;28;20078;-67
2024/01/22 12:24:22;;;;;;;7.53;2.15;;;6.70;99.90;;;;;;5057429;28;20025;-67
2024/01/22 12:26:52;;;;;;;11.32;2.05;;;6.60;99.90;;;;;;5057837;28;20021;-67
2024/01/22 12:29:24;;;;;;;4.88;2.10;;;6.60;99.90;;;;;;5057571;28;20079;-67
2024/01/22 12:32:05;;;;;;;4.70;2.08;;;6.50;99.90;;;;;;5055496;28;20013;-67
2024/01/22 12:34:32;;;;;;;6.03;2.50;;;6.60;99.90;;;;;;5057031;28;20021;-67
2024/01/22 12:37:12;;;;;;;4.13;2.80;;;6.50;99.90;;;;;;5057344;28;20029;-67
2024/01/22 12:39:37;;;;;;;4.28;2.15;;;6.50;99.90;;;;;;5048944;28;20080;-67
2024/01/22 12:42:03;;;;;;;6.88;2.20;;;6.40;99.90;;;;;;5051017;28;20021;-67
2024/01/22 12:44:28;;;;;;;7.07;2.30;;;6.40;99.90;;;;;;5048761;28;20112;-67
2024/01/22 12:46:54;;;;;;;4.50;2.10;;;6.50;99.90;;;;;;5037352;28;20029;-67
2024/01/22 12:49:19;;;;;;;11.93;2.72;;;6.50;99.90;;;;;;5037095;28;20104;-67
2024/01/22 12:51:45;;;;;;;5.35;2.13;;;6.40;99.90;;;;;;5037543;28;20067;-67